createdAt,value
2019-04-26T00:03:14.152Z,26.13
2019-04-26T00:13:37.296Z,22.07
2019-04-26T00:23:42.878Z,21.27
2019-04-26T00:33:48.669Z,22.67
2019-04-26T00:43:54.271Z,26.13
2019-04-26T00:53:59.940Z,32.00
2019-04-26T01:04:06.496Z,26.37
2019-04-26T01:14:11.816Z,18.07
2019-04-26T01:24:19.394Z,18.97
2019-04-26T01:34:26.131Z,20.60
2019-04-26T01:44:51.780Z,21.33
2019-04-26T01:54:57.465Z,20.60
2019-04-26T02:05:05.992Z,28.67
2019-04-26T02:15:11.642Z,20.87
2019-04-26T02:25:17.500Z,23.17
2019-04-26T02:35:22.786Z,22.33
2019-04-26T02:45:58.924Z,24.40
2019-04-26T02:56:29.805Z,20.87
2019-04-26T03:06:37.287Z,23.97
2019-04-26T03:17:06.892Z,22.67
2019-04-26T03:27:25.762Z,27.30
2019-04-26T03:38:08.952Z,21.27
2019-04-26T03:48:45.917Z,24.90
2019-04-26T03:59:25.424Z,23.93
2019-04-26T04:09:32.146Z,24.10
2019-04-26T04:20:02.149Z,23.37
2019-04-26T04:30:36.191Z,33.83
2019-04-26T04:41:16.555Z,22.70
2019-04-26T04:51:44.178Z,19.37
2019-04-26T05:02:34.303Z,29.43
2019-04-26T05:12:58.877Z,27.83
2019-04-26T05:23:39.410Z,32.10
2019-04-26T05:34:31.690Z,24.00
2019-04-26T05:45:15.645Z,25.12
2019-04-26T05:56:05.331Z,26.17
2019-04-26T06:06:25.463Z,28.35
2019-04-26T06:17:01.763Z,26.17
2019-04-26T06:27:28.313Z,28.00
2019-04-26T06:37:48.011Z,24.05
2019-04-26T06:48:01.843Z,32.55
2019-04-26T06:58:31.540Z,22.02
2019-04-26T07:08:57.613Z,20.12
2019-04-26T07:19:54.573Z,22.48
2019-04-26T07:30:17.391Z,18.85
2019-04-26T07:40:47.953Z,23.00
2019-04-26T07:51:52.687Z,16.07
2019-04-26T08:02:27.239Z,22.67
2019-04-26T08:12:35.382Z,21.37
2019-04-26T08:22:44.291Z,20.80
2019-04-26T08:32:55.370Z,22.60
2019-04-26T08:43:20.166Z,21.20
2019-04-26T08:53:27.647Z,21.93
2019-04-26T09:03:53.431Z,21.37
2019-04-26T09:14:24.130Z,19.53
2019-04-26T09:24:26.651Z,25.63
2019-04-26T09:34:32.250Z,22.40
2019-04-26T09:44:46.079Z,15.37
2019-04-26T09:54:51.770Z,17.00
2019-04-26T10:04:57.300Z,16.30
2019-04-26T10:15:14.202Z,14.93
2019-04-26T10:25:20.376Z,16.27
2019-04-26T10:35:26.244Z,12.20
2019-04-26T10:45:32.082Z,17.87
2019-04-26T10:56:08.635Z,12.00
2019-04-26T11:06:15.187Z,12.73
2019-04-26T11:16:20.944Z,12.87
2019-04-26T11:26:26.874Z,12.23
2019-04-26T11:36:32.372Z,11.30
2019-04-26T11:46:44.484Z,10.70
2019-04-26T11:56:45.151Z,11.40
2019-04-26T12:06:57.941Z,14.40
2019-04-26T12:17:03.786Z,11.27
2019-04-26T12:27:10.449Z,10.90
2019-04-26T12:37:19.974Z,8.73
2019-04-26T12:47:45.803Z,10.23
2019-04-26T12:57:52.207Z,13.17
2019-04-26T13:07:57.916Z,7.67
2019-04-26T13:18:07.245Z,10.37
2019-04-26T13:28:11.635Z,13.63
2019-04-26T13:38:17.069Z,17.47
2019-04-26T13:48:45.401Z,13.80
2019-04-26T13:58:54.323Z,19.03
2019-04-26T14:09:02.815Z,11.47
2019-04-26T14:19:14.457Z,18.70
2019-04-26T14:29:15.920Z,11.97
2019-04-26T14:39:35.121Z,15.93
2019-04-26T14:49:38.512Z,17.07
2019-04-26T14:59:53.291Z,15.13
2019-04-26T15:09:58.893Z,20.47
2019-04-26T15:20:04.402Z,20.50
2019-04-26T15:30:10.984Z,13.13
2019-04-26T15:40:35.174Z,17.60
2019-04-26T15:50:48.458Z,17.67
2019-04-26T16:00:49.677Z,27.17
2019-04-26T16:10:55.974Z,19.23
2019-04-26T16:21:01.951Z,19.10
2019-04-26T16:31:34.337Z,11.37
2019-04-26T16:41:39.832Z,16.03
2019-04-26T16:51:45.431Z,13.40
2019-04-26T17:01:53.641Z,15.60
2019-04-26T17:11:59.058Z,15.10
2019-04-26T17:22:23.532Z,23.10
2019-04-26T17:32:28.918Z,13.20
2019-04-26T17:42:36.451Z,14.57
2019-04-26T17:52:44.073Z,16.67
2019-04-26T18:02:48.467Z,16.70
2019-04-26T18:12:55.462Z,16.03
2019-04-26T18:23:05.665Z,18.50
2019-04-26T18:33:13.324Z,16.73
2019-04-26T18:43:23.889Z,15.50
2019-04-26T18:53:43.890Z,14.57
2019-04-26T19:03:49.510Z,14.97
2019-04-26T19:14:15.322Z,12.33
2019-04-26T19:24:21.472Z,17.40
2019-04-26T19:34:30.268Z,24.60
2019-04-26T19:44:34.939Z,19.57
2019-04-26T19:54:51.290Z,17.00
2019-04-26T20:05:08.747Z,17.80
2019-04-26T20:15:25.484Z,20.60
2019-04-26T20:25:22.346Z,24.40
2019-04-26T20:35:28.289Z,20.93
2019-04-26T20:45:41.332Z,16.43
2019-04-26T20:55:42.762Z,20.13
2019-04-26T21:05:52.713Z,16.20
2019-04-26T21:15:58.426Z,18.40
2019-04-26T21:26:25.083Z,16.47
2019-04-26T21:36:41.112Z,17.00
2019-04-26T21:46:49.545Z,18.73
2019-04-26T21:56:54.015Z,19.13
2019-04-26T22:06:59.966Z,32.27
2019-04-26T22:17:16.183Z,20.87
2019-04-26T22:27:24.860Z,22.70
2019-04-26T22:37:30.005Z,18.90
2019-04-26T22:47:42.368Z,23.83
2019-04-26T22:57:49.495Z,19.47
2019-04-26T23:07:58.892Z,22.07
2019-04-26T23:18:38.816Z,21.83
2019-04-26T23:28:43.331Z,16.47
2019-04-26T23:38:48.680Z,14.97
2019-04-26T23:48:54.056Z,20.43
2019-04-26T23:58:59.387Z,21.00
